Time;durP1;ratioP1;P1;durP2;ratioP2;P2;SDS_P1;SDS_P2;PMS_P1;PMS_P2;Temp;Humidity;BMP_temperature;BMP_pressure;BME280_temperature;BME280_humidity;BME280_pressure;Samples;Min_cycle;Max_cycle;Signal;HPM_P1;HPM_P2
2023/11/25 00:01:40;;;;;;;6.13;1.00;;;;;;;4.90;95.97;101491.97;5055843;28;20043;-89
2023/11/25 00:04:06;;;;;;;9.80;1.98;;;;;;;4.88;98.23;101462.56;5057157;28;20032;-89
2023/11/25 00:06:32;;;;;;;5.68;1.55;;;;;;;4.87;98.64;101458.25;5056412;28;20041;-88
2023/11/25 00:08:57;;;;;;;10.77;1.58;;;;;;;4.79;98.67;101454.84;5056359;28;20095;-88
2023/11/25 00:11:22;;;;;;;10.95;1.73;;;;;;;4.77;98.57;101447.06;5057248;28;20033;-89
2023/11/25 00:13:48;;;;;;;7.38;1.20;;;;;;;4.75;98.68;101440.19;5055958;28;20328;-89
2023/11/25 00:16:13;;;;;;;16.15;1.85;;;;;;;4.77;98.72;101441.88;5056669;28;20067;-89
2023/11/25 00:18:39;;;;;;;12.75;1.80;;;;;;;4.77;98.80;101441.03;5056199;28;20354;-88
2023/11/25 00:21:04;;;;;;;9.90;1.90;;;;;;;4.72;98.53;101441.06;5055404;28;20335;-89
2023/11/25 00:23:29;;;;;;;12.55;1.65;;;;;;;4.74;98.59;101441.91;5049199;28;20048;-89
2023/11/25 00:25:55;;;;;;;11.65;1.90;;;;;;;4.75;98.72;101443.63;5055334;28;20489;-88
2023/11/25 00:28:20;;;;;;;10.25;2.10;;;;;;;4.78;98.89;101440.16;5049533;28;20123;-89
2023/11/25 00:30:46;;;;;;;6.15;1.52;;;;;;;4.80;98.69;101441.88;5026998;28;20039;-89
2023/11/25 00:33:13;;;;;;;10.85;1.90;;;;;;;4.84;98.63;101442.72;5052862;28;20040;-89
2023/11/25 00:35:40;;;;;;;3.65;1.42;;;;;;;4.84;98.91;101442.72;5055541;28;20272;-89
2023/11/25 00:38:08;;;;;;;5.45;1.60;;;;;;;4.85;98.63;101436.63;5045714;28;20240;-89
2023/11/25 00:40:34;;;;;;;6.45;1.52;;;;;;;4.87;98.77;101439.22;5035183;28;20025;-89
2023/11/25 00:42:59;;;;;;;5.57;1.55;;;;;;;4.88;99.03;101440.97;5047876;28;20023;-89
2023/11/25 00:45:26;;;;;;;3.33;1.02;;;;;;;4.91;98.82;101440.91;5046098;28;20041;-89
2023/11/25 00:47:52;;;;;;;4.78;1.13;;;;;;;4.93;98.97;101440.03;5047139;28;20469;-89
2023/11/25 00:50:19;;;;;;;4.57;1.30;;;;;;;4.93;98.87;101436.56;5047758;28;20344;-89
2023/11/25 00:52:45;;;;;;;6.78;1.50;;;;;;;4.92;98.90;101437.47;5030208;28;20308;-88
2023/11/25 00:55:10;;;;;;;2.00;0.90;;;;;;;4.92;98.89;101427.06;5048972;28;20024;-89
2023/11/25 00:57:36;;;;;;;3.65;1.30;;;;;;;4.93;99.04;101439.16;5045881;28;20358;-89
2023/11/25 01:00:04;;;;;;;5.88;1.38;;;;;;;4.90;98.95;101436.63;5066937;28;20119;-89
2023/11/25 01:02:30;;;;;;;7.65;1.65;;;;;;;4.84;98.71;101449.63;5075277;28;20209;-89
2023/11/25 01:04:56;;;;;;;6.03;1.63;;;;;;;4.77;98.63;101439.28;5054299;28;20315;-89
2023/11/25 01:07:21;;;;;;;10.98;1.60;;;;;;;4.76;98.82;101444.47;5074942;28;20028;-89
2023/11/25 01:09:47;;;;;;;16.15;2.13;;;;;;;4.67;98.83;101450.59;5055006;28;20067;-89
2023/11/25 01:12:12;;;;;;;18.35;2.83;;;;;;;4.66;99.24;101455.78;5075921;28;20032;-89
2023/11/25 01:14:38;;;;;;;18.67;2.90;;;;;;;4.72;99.41;101447.97;5074494;28;20477;-89
2023/11/25 01:17:03;;;;;;;13.70;2.00;;;;;;;4.72;99.34;101450.56;5061455;28;20044;-89
2023/11/25 01:19:28;;;;;;;18.25;2.70;;;;;;;4.68;98.78;101454.91;5051162;28;20027;-89
2023/11/25 01:21:54;;;;;;;15.50;2.70;;;;;;;4.77;98.17;101448.81;5075231;28;20097;-88
2023/11/25 01:24:19;;;;;;;16.15;2.08;;;;;;;4.84;98.42;101447.91;5075755;28;20036;-88
2023/11/25 01:26:45;;;;;;;14.63;2.60;;;;;;;4.87;98.56;101445.25;5074840;28;20185;-89
2023/11/25 01:29:10;;;;;;;20.38;2.67;;;;;;;4.94;98.32;101462.50;5057759;28;20039;-89
2023/11/25 01:31:35;;;;;;;14.30;2.83;;;;;;;5.00;98.31;101456.41;5075417;28;20036;-88
2023/11/25 01:34:01;;;;;;;13.70;3.20;;;;;;;5.01;98.07;101452.97;5057477;28;20411;-89
2023/11/25 01:36:27;;;;;;;21.33;3.00;;;;;;;5.01;98.09;101455.56;5074798;28;20036;-89
2023/11/25 01:38:52;;;;;;;17.83;2.47;;;;;;;5.06;97.49;101452.91;5074808;28;20400;-89
2023/11/25 01:41:18;;;;;;;10.77;2.42;;;;;;;5.09;97.03;101460.69;5075656;28;20036;-89
2023/11/25 01:43:43;;;;;;;16.25;3.20;;;;;;;5.13;96.98;101460.66;5074880;28;20047;-88
2023/11/25 01:46:10;;;;;;;15.65;1.98;;;;;;;5.14;96.66;101453.72;5075475;28;20233;-89
2023/11/25 01:48:37;;;;;;;12.38;2.22;;;;;;;5.16;96.71;101462.34;5069643;28;20107;-89
2023/11/25 01:51:04;;;;;;;7.63;1.73;;;;;;;5.15;96.82;101452.88;5074506;28;20106;-89
2023/11/25 01:53:31;;;;;;;20.23;2.58;;;;;;;5.11;97.17;101457.22;5074764;28;20339;-88
2023/11/25 01:55:58;;;;;;;10.57;1.95;;;;;;;5.12;97.32;101458.91;5074473;28;20056;-89
2023/11/25 01:58:25;;;;;;;12.25;2.60;;;;;;;5.13;97.52;101451.97;5075452;28;20051;-89
2023/11/25 02:00:50;;;;;;;10.75;2.03;;;;;;;5.13;97.84;101462.38;5074574;28;20040;-89
2023/11/25 02:03:16;;;;;;;9.50;2.15;;;;;;;5.12;97.77;101458.91;5074893;28;20040;-89
2023/11/25 02:05:43;;;;;;;16.98;2.20;;;;;;;5.08;96.00;101469.38;5073339;28;20100;-89
2023/11/25 02:08:09;;;;;;;18.25;2.65;;;;;;;5.10;93.73;101470.22;5053873;28;20037;-89
2023/11/25 02:10:34;;;;;;;17.92;1.73;;;;;;;5.14;92.53;101470.16;5048641;28;20051;-89
2023/11/25 02:13:02;;;;;;;16.42;2.22;;;;;;;5.26;91.08;101484.78;5074276;28;20110;-89
2023/11/25 02:15:28;;;;;;;16.40;2.45;;;;;;;5.30;90.31;101457.91;5074462;28;20359;-88
2023/11/25 02:17:55;;;;;;;7.57;2.33;;;;;;;5.31;90.64;101459.66;5074121;28;20078;-89
2023/11/25 02:20:42;;;;;;;14.85;1.73;;;;;;;5.30;86.96;101447.50;5074624;28;20130;-89
2023/11/25 02:23:22;;;;;;;9.45;1.38;;;;;;;5.30;85.69;101441.47;5074965;28;20127;-89
2023/11/25 02:25:49;;;;;;;11.07;1.45;;;;;;;5.34;86.12;101441.41;5074197;28;20364;-89
2023/11/25 02:28:19;;;;;;;10.02;1.77;;;;;;;5.36;85.48;101450.03;5074154;28;20020;-89
2023/11/25 02:30:46;;;;;;;6.57;1.33;;;;;;;5.34;85.20;101444.00;5074644;28;20339;-89
2023/11/25 02:33:12;;;;;;;9.80;1.20;;;;;;;5.35;85.58;101437.09;5074616;28;20056;-89
2023/11/25 02:35:38;;;;;;;11.65;1.42;;;;;;;5.34;86.99;101443.16;5073864;28;20097;-88
2023/11/25 02:38:04;;;;;;;9.77;1.83;;;;;;;5.31;87.64;101441.47;5074391;28;20032;-88
2023/11/25 02:40:30;;;;;;;10.35;1.25;;;;;;;5.33;88.68;101434.50;5074166;28;20089;-89
2023/11/25 02:42:56;;;;;;;10.02;1.73;;;;;;;5.31;89.32;101435.38;5074262;28;20130;-89
2023/11/25 02:45:24;;;;;;;5.65;1.35;;;;;;;5.26;88.92;101440.63;5074123;28;20037;-88
2023/11/25 02:47:51;;;;;;;7.82;2.13;;;;;;;5.23;89.01;101443.25;5073234;28;20021;-89
2023/11/25 02:50:18;;;;;;;12.63;2.17;;;;;;;5.23;89.49;101437.22;5073696;28;20274;-89
2023/11/25 02:52:44;;;;;;;15.63;2.63;;;;;;;5.22;89.99;101436.34;5073991;28;20113;-89
2023/11/25 02:55:10;;;;;;;8.63;1.33;;;;;;;5.22;90.26;101443.25;5055613;28;20083;-89
2023/11/25 02:57:43;;;;;;;13.35;2.08;;;;;;;5.21;89.73;101441.56;5055850;28;20032;-89
2023/11/25 03:00:33;;;;;;;12.23;2.17;;;;;;;5.21;88.18;101431.16;5074103;28;20055;-89
2023/11/25 03:03:07;;;;;;;15.93;2.50;;;;;;;5.22;87.31;101435.47;5074340;28;20089;-88
2023/11/25 03:05:32;;;;;;;9.75;1.95;;;;;;;5.25;86.71;101432.84;5074038;28;20343;-88
2023/11/25 03:07:57;;;;;;;13.98;1.80;;;;;;;5.22;86.82;101428.56;5074558;28;20115;-89
2023/11/25 03:10:23;;;;;;;12.27;2.03;;;;;;;5.22;86.68;101431.16;5074972;28;20060;-88
2023/11/25 03:12:49;;;;;;;4.60;1.45;;;;;;;5.23;86.78;101422.47;5073960;28;20055;-88
2023/11/25 03:15:15;;;;;;;10.27;1.70;;;;;;;5.23;86.99;101425.06;5074721;28;20241;-88
2023/11/25 03:17:40;;;;;;;5.45;1.65;;;;;;;5.21;85.41;101429.41;5074120;28;20032;-88
2023/11/25 03:20:07;;;;;;;7.07;1.20;;;;;;;5.21;85.81;101420.78;5074770;28;20087;-88
2023/11/25 03:22:32;;;;;;;10.32;1.50;;;;;;;5.19;83.38;101420.78;5073706;28;20100;-88
2023/11/25 03:24:58;;;;;;;14.40;1.42;;;;;;;5.21;83.72;101413.84;5074113;28;20386;-88
2023/11/25 03:27:23;;;;;;;6.18;1.60;;;;;;;5.22;83.97;101409.50;5055982;28;20050;-88
2023/11/25 03:29:48;;;;;;;4.75;1.40;;;;;;;5.25;84.09;101409.47;5073851;28;20059;-88
2023/11/25 03:32:14;;;;;;;12.18;2.00;;;;;;;5.24;84.05;101413.81;5074256;28;20040;-88
2023/11/25 03:34:41;;;;;;;6.93;1.15;;;;;;;5.26;84.33;101416.41;5073511;28;20055;-88
2023/11/25 03:37:06;;;;;;;7.70;1.60;;;;;;;5.22;84.63;101432.88;5074165;28;20044;-88
2023/11/25 03:39:32;;;;;;;6.18;1.27;;;;;;;5.15;84.05;101458.91;5073822;28;20103;-88
2023/11/25 03:41:57;;;;;;;16.13;2.10;;;;;;;5.12;89.09;101452.88;5073943;28;20032;-88
2023/11/25 03:44:22;;;;;;;10.25;2.00;;;;;;;5.09;91.96;101445.94;5055974;28;20029;-88
2023/11/25 03:46:48;;;;;;;9.10;1.42;;;;;;;5.09;94.03;101451.16;5073525;28;20089;-88
2023/11/25 03:49:13;;;;;;;7.85;1.60;;;;;;;5.15;95.71;101463.25;5073670;28;20085;-88
2023/11/25 03:51:38;;;;;;;10.00;1.77;;;;;;;5.01;98.48;101455.56;5055525;28;20028;-88
2023/11/25 03:54:04;;;;;;;10.57;1.77;;;;;;;4.99;98.65;101420.97;5074169;28;20040;-88
2023/11/25 03:56:31;;;;;;;4.85;1.02;;;;;;;4.99;99.84;101419.22;5075744;28;20405;-88
2023/11/25 03:58:56;;;;;;;3.50;0.85;;;;;;;5.00;100.00;101431.34;5071454;28;20349;-88
2023/11/25 04:01:21;;;;;;;8.07;1.20;;;;;;;5.02;100.00;101423.53;5057421;28;20047;-88
2023/11/25 04:03:47;;;;;;;14.90;1.77;;;;;;;5.06;100.00;101427.81;5038501;28;20033;-88
2023/11/25 04:06:13;;;;;;;7.07;0.85;;;;;;;5.10;100.00;101424.31;5057251;28;20037;-88
2023/11/25 04:08:39;;;;;;;4.65;1.10;;;;;;;5.08;100.00;101435.59;5056628;28;20025;-88
2023/11/25 04:11:06;;;;;;;10.05;1.20;;;;;;;5.10;100.00;101454.63;5056849;28;20024;-88
2023/11/25 04:13:31;;;;;;;5.47;1.30;;;;;;;5.03;100.00;101448.63;5056846;28;20041;-88
2023/11/25 04:15:56;;;;;;;16.30;1.67;;;;;;;5.04;100.00;101458.13;5056791;28;20043;-88
2023/11/25 04:18:22;;;;;;;8.00;0.90;;;;;;;4.99;100.00;101452.97;5056605;28;20033;-88
2023/11/25 04:20:48;;;;;;;8.65;1.27;;;;;;;5.00;100.00;101436.53;5056323;28;20044;-88
2023/11/25 04:23:15;;;;;;;5.68;0.52;;;;;;;5.03;100.00;101432.19;5056349;28;20123;-88
2023/11/25 04:25:41;;;;;;;4.75;0.82;;;;;;;5.05;100.00;101436.47;5056535;28;20041;-89
2023/11/25 04:28:08;;;;;;;4.45;0.60;;;;;;;5.04;100.00;101429.59;5055776;28;20060;-88
2023/11/25 04:30:34;;;;;;;9.45;1.00;;;;;;;5.06;100.00;101435.63;5056785;28;20213;-88
2023/11/25 04:32:59;;;;;;;6.13;0.98;;;;;;;5.06;100.00;101437.31;5056685;28;20036;-88
2023/11/25 04:35:25;;;;;;;8.82;0.77;;;;;;;5.05;100.00;101451.19;5056708;28;20100;-88
2023/11/25 04:37:52;;;;;;;3.50;1.00;;;;;;;5.05;100.00;101440.81;5038037;28;20036;-88
2023/11/25 04:40:18;;;;;;;5.40;1.60;;;;;;;5.05;100.00;101441.66;5056337;28;20060;-88
2023/11/25 04:42:44;;;;;;;4.25;0.82;;;;;;;5.07;100.00;101436.47;5056134;28;20036;-88
2023/11/25 04:45:16;;;;;;;8.10;0.93;;;;;;;5.02;100.00;101414.88;5056122;28;20262;-88
2023/11/25 04:47:44;;;;;;;3.78;0.70;;;;;;;5.04;100.00;101420.91;5056090;28;20079;-88
2023/11/25 04:50:10;;;;;;;8.18;1.17;;;;;;;5.05;100.00;101433.88;5048764;28;20406;-88
2023/11/25 04:52:36;;;;;;;7.15;1.10;;;;;;;5.07;100.00;101439.06;5056459;28;20033;-88
2023/11/25 04:55:03;;;;;;;6.20;0.85;;;;;;;5.09;100.00;101435.56;5056136;28;20120;-88
2023/11/25 04:57:29;;;;;;;3.95;0.95;;;;;;;5.16;100.00;101431.19;5056009;28;20036;-88
2023/11/25 04:59:54;;;;;;;0.85;0.50;;;;;;;5.23;100.00;101425.06;5069587;28;20044;-88
2023/11/25 05:02:20;;;;;;;2.20;0.68;;;;;;;5.30;100.00;101424.13;5076467;28;20032;-88
2023/11/25 05:04:46;;;;;;;2.15;0.60;;;;;;;5.34;100.00;101420.63;5075284;28;20231;-88
2023/11/25 05:07:11;;;;;;;1.38;0.30;;;;;;;5.38;100.00;101406.75;5074931;28;20328;-88
2023/11/25 05:09:38;;;;;;;2.13;0.50;;;;;;;5.41;100.00;101408.44;5075541;28;20340;-88
2023/11/25 05:12:05;;;;;;;1.50;0.20;;;;;;;5.44;100.00;101403.25;5074670;28;20078;-88
2023/11/25 05:14:31;;;;;;;2.00;0.70;;;;;;;5.45;100.00;101394.56;5075708;28;20027;-88
2023/11/25 05:16:57;;;;;;;4.30;0.98;;;;;;;5.45;100.00;101396.28;5075879;28;20036;-88
2023/11/25 05:19:22;;;;;;;0.90;0.40;;;;;;;5.47;100.00;101398.00;5075833;28;20070;-88
2023/11/25 05:21:48;;;;;;;0.88;0.28;;;;;;;5.48;100.00;101397.13;5075024;28;20212;-88
2023/11/25 05:24:15;;;;;;;3.53;0.63;;;;;;;5.46;100.00;101393.69;5074193;28;20032;-88
2023/11/25 05:26:40;;;;;;;2.70;0.77;;;;;;;5.42;100.00;101402.41;5075293;28;20071;-88
2023/11/25 05:29:06;;;;;;;4.90;1.08;;;;;;;5.26;100.00;101399.09;5075792;28;20031;-88
2023/11/25 05:31:33;;;;;;;26.38;1.38;;;;;;;5.19;100.00;101397.41;5075034;28;20095;-88
2023/11/25 05:34:02;;;;;;;6.65;1.30;;;;;;;5.14;100.00;101400.03;5075273;28;20276;-88
2023/11/25 05:36:28;;;;;;;11.38;1.20;;;;;;;5.19;100.00;101406.06;5071727;28;20025;-88
2023/11/25 05:38:54;;;;;;;10.02;1.67;;;;;;;5.27;99.84;101402.53;5075275;28;20412;-88
2023/11/25 05:41:22;;;;;;;6.95;1.25;;;;;;;5.28;99.00;101423.31;5075716;28;20382;-88
2023/11/25 05:43:50;;;;;;;3.72;0.70;;;;;;;5.21;99.19;101428.56;5074904;28;20353;-88
2023/11/25 05:46:22;;;;;;;1.23;0.40;;;;;;;5.18;100.00;101412.16;5075725;28;20107;-88
2023/11/25 05:48:48;;;;;;;2.20;0.47;;;;;;;5.18;100.00;101404.34;5075185;28;20270;-88
2023/11/25 05:51:13;;;;;;;8.13;1.08;;;;;;;5.16;100.00;101407.81;5075133;28;20343;-88
2023/11/25 05:53:38;;;;;;;3.63;0.60;;;;;;;5.13;100.00;101400.06;5075408;28;20082;-88
2023/11/25 05:56:04;;;;;;;4.32;1.13;;;;;;;5.10;100.00;101393.16;5075104;28;20059;-88
2023/11/25 05:58:29;;;;;;;6.40;0.75;;;;;;;5.08;100.00;101387.13;5074940;28;20575;-87
2023/11/25 06:00:55;;;;;;;4.20;0.60;;;;;;;5.07;100.00;101384.53;5073700;28;20099;-88
2023/11/25 06:03:20;;;;;;;2.38;0.47;;;;;;;5.10;100.00;101374.13;5075402;28;20074;-88
2023/11/25 06:05:45;;;;;;;6.65;0.77;;;;;;;5.10;100.00;101380.19;5074903;28;20043;-88
2023/11/25 06:08:11;;;;;;;3.92;0.98;;;;;;;5.08;100.00;101373.31;5072507;28;20029;-88
2023/11/25 06:10:36;;;;;;;6.15;0.90;;;;;;;5.07;100.00;101372.41;5074890;28;20284;-88
2023/11/25 06:13:04;;;;;;;3.40;0.47;;;;;;;5.13;100.00;101364.59;5074536;28;20083;-88
2023/11/25 06:15:29;;;;;;;3.75;0.68;;;;;;;5.16;100.00;101372.31;5072992;28;20032;-88
2023/11/25 06:17:54;;;;;;;3.33;0.77;;;;;;;5.21;100.00;101381.84;5073038;28;20040;-88
2023/11/25 06:20:24;;;;;;;7.57;0.93;;;;;;;5.21;100.00;101367.09;5074753;28;20048;-88
2023/11/25 06:22:52;;;;;;;3.58;0.82;;;;;;;5.26;100.00;101360.13;5074082;28;20262;-89
2023/11/25 06:25:17;;;;;;;4.18;0.82;;;;;;;5.34;100.00;101362.63;5074558;28;20058;-88
2023/11/25 06:27:43;;;;;;;0.50;0.30;;;;;;;5.40;100.00;101359.97;5073855;28;20036;-88
2023/11/25 06:30:09;;;;;;;2.35;0.63;;;;;;;5.44;100.00;101355.59;5074436;28;20043;-88
2023/11/25 06:32:34;;;;;;;2.05;0.55;;;;;;;5.44;100.00;101350.41;5072782;28;20038;-88
2023/11/25 06:35:00;;;;;;;8.55;1.35;;;;;;;5.45;100.00;101357.34;5074128;28;20043;-88
2023/11/25 06:37:26;;;;;;;7.75;1.08;;;;;;;5.35;100.00;101374.75;5074028;28;20032;-88
2023/11/25 06:39:51;;;;;;;11.68;1.50;;;;;;;5.29;100.00;101377.41;5074388;28;20146;-88
2023/11/25 06:42:16;;;;;;;9.68;1.05;;;;;;;5.34;100.00;101363.50;5074537;28;20101;-88
2023/11/25 06:44:43;;;;;;;8.90;1.40;;;;;;;5.31;100.00;101373.06;5072855;28;20504;-88
2023/11/25 06:47:11;;;;;;;7.40;1.48;;;;;;;5.34;100.00;101366.09;5074307;28;20092;-88
2023/11/25 06:49:36;;;;;;;4.50;1.15;;;;;;;5.36;100.00;101360.88;5070552;28;20239;-88
2023/11/25 06:52:01;;;;;;;9.55;1.73;;;;;;;5.33;100.00;101363.50;5074284;28;20036;-88
2023/11/25 06:54:27;;;;;;;6.07;1.35;;;;;;;5.31;100.00;101371.34;5074275;28;20047;-88
2023/11/25 06:56:52;;;;;;;7.95;1.60;;;;;;;5.33;100.00;101361.78;5073999;28;20040;-88
2023/11/25 06:59:19;;;;;;;10.60;1.60;;;;;;;5.35;100.00;101359.19;5074159;28;20090;-88
2023/11/25 07:01:45;;;;;;;11.63;1.52;;;;;;;5.33;100.00;101356.59;5073489;28;20334;-88
2023/11/25 07:04:10;;;;;;;11.15;1.63;;;;;;;5.33;100.00;101355.72;5074289;28;20240;-88
2023/11/25 07:06:35;;;;;;;19.50;1.55;;;;;;;5.32;100.00;101348.81;5073537;28;20016;-88
2023/11/25 07:09:01;;;;;;;6.03;1.63;;;;;;;5.35;100.00;101346.19;5073837;28;20119;-88
2023/11/25 07:11:30;;;;;;;10.23;1.33;;;;;;;5.36;100.00;101342.69;5073484;28;20043;-88
2023/11/25 07:13:55;;;;;;;7.78;1.67;;;;;;;5.37;100.00;101350.47;5073560;28;20224;-88
2023/11/25 07:16:21;;;;;;;9.23;1.25;;;;;;;5.42;100.00;101347.84;5072213;28;20082;-88
2023/11/25 07:18:48;;;;;;;10.15;1.50;;;;;;;5.50;100.00;101359.00;5071476;28;20035;-88
2023/11/25 07:21:14;;;;;;;8.27;1.35;;;;;;;5.58;100.00;101379.69;5072251;28;20127;-88
2023/11/25 07:23:40;;;;;;;16.67;1.85;;;;;;;5.64;100.00;101370.97;5073047;28;20036;-88
2023/11/25 07:26:06;;;;;;;13.05;1.48;;;;;;;5.64;100.00;101391.75;5072661;28;20057;-88
2023/11/25 07:28:35;;;;;;;10.50;2.00;;;;;;;5.58;100.00;101375.38;5073444;28;20040;-88
2023/11/25 07:31:00;;;;;;;;;;;;;;;5.53;100.00;101371.06;5075233;28;20040;-88
2023/11/25 07:33:26;;;;;;;6.85;0.95;;;;;;;5.49;100.00;101372.00;5077762;28;20123;-88
2023/11/25 07:35:51;;;;;;;9.48;1.33;;;;;;;5.47;100.00;101372.00;5077323;28;20124;-88
2023/11/25 07:38:17;;;;;;;12.50;1.58;;;;;;;5.45;100.00;101372.91;5076934;28;20024;-88
2023/11/25 07:40:42;;;;;;;10.13;1.83;;;;;;;5.42;100.00;101360.84;5076486;28;20059;-88
2023/11/25 07:43:07;;;;;;;12.98;2.33;;;;;;;5.40;100.00;101365.16;5077547;28;20033;-88
2023/11/25 07:45:33;;;;;;;15.65;1.88;;;;;;;5.43;100.00;101365.13;5076899;28;20107;-88
2023/11/25 07:47:58;;;;;;;14.00;2.03;;;;;;;5.43;100.00;101367.72;5077661;28;20032;-88
2023/11/25 07:50:24;;;;;;;15.98;2.13;;;;;;;5.43;100.00;101357.34;5077049;28;20040;-88
2023/11/25 07:52:52;;;;;;;16.80;1.63;;;;;;;5.45;100.00;101358.19;5076604;28;20036;-88
2023/11/25 07:55:17;;;;;;;14.07;2.10;;;;;;;5.48;100.00;101363.34;5076963;28;20048;-88
2023/11/25 07:57:43;;;;;;;7.82;1.58;;;;;;;5.47;100.00;101361.63;5076541;28;20294;-88
2023/11/25 08:00:15;;;;;;;7.47;0.95;;;;;;;5.49;100.00;101356.41;5076735;28;20049;-88
2023/11/25 08:02:44;;;;;;;3.67;1.30;;;;;;;5.50;100.00;101361.59;5075946;28;20331;-88
2023/11/25 08:05:10;;;;;;;;;;;;;;;5.53;100.00;101361.56;5069428;28;20032;-88
2023/11/25 08:07:36;;;;;;;9.57;1.85;;;;;;;5.63;100.00;101358.84;5074678;28;20097;-88
2023/11/25 08:10:04;;;;;;;6.85;1.25;;;;;;;5.67;100.00;101363.13;5065923;28;20039;-88
2023/11/25 08:12:30;;;;;;;5.22;1.20;;;;;;;5.67;100.00;101365.72;5075405;28;20236;-88
2023/11/25 08:14:56;;;;;;;4.45;0.85;;;;;;;5.73;100.00;101360.44;5076249;28;20327;-88
2023/11/25 08:17:21;;;;;;;6.95;1.10;;;;;;;5.73;98.96;101381.25;5070012;28;20028;-88
2023/11/25 08:19:46;;;;;;;7.72;1.40;;;;;;;5.74;98.50;101390.78;5076517;28;20042;-88
2023/11/25 08:22:12;;;;;;;4.70;1.10;;;;;;;5.73;98.62;101389.91;5076891;28;20025;-88
2023/11/25 08:24:37;;;;;;;8.88;1.42;;;;;;;5.76;97.97;101382.06;5077026;28;20110;-88
2023/11/25 08:27:03;;;;;;;7.07;1.23;;;;;;;5.79;98.32;101388.97;5077263;28;20039;-88
2023/11/25 08:29:28;;;;;;;3.97;1.02;;;;;;;5.83;98.75;101389.81;5076842;28;20067;-88
2023/11/25 08:31:53;;;;;;;8.70;1.27;;;;;;;5.87;98.15;101375.88;5075567;28;20111;-88
2023/11/25 08:34:19;;;;;;;17.92;1.55;;;;;;;5.90;97.33;101378.47;5070532;28;20032;-88
2023/11/25 08:36:47;;;;;;;6.50;1.08;;;;;;;5.93;98.32;101383.59;5056170;28;20040;-88
2023/11/25 08:39:15;;;;;;;8.40;1.58;;;;;;;5.94;98.88;101383.59;5073951;28;20028;-88
2023/11/25 08:41:43;;;;;;;5.43;0.70;;;;;;;5.96;100.00;101386.19;5076046;28;20330;-88
2023/11/25 08:44:12;;;;;;;12.30;1.50;;;;;;;5.96;100.00;101400.06;5076721;28;20119;-88
2023/11/25 08:46:39;;;;;;;17.45;1.73;;;;;;;5.98;100.00;101410.44;5075071;28;20016;-88
2023/11/25 08:49:06;;;;;;;9.15;1.60;;;;;;;5.95;100.00;101389.66;5076573;28;20055;-88
2023/11/25 08:51:32;;;;;;;6.72;1.23;;;;;;;5.95;100.00;101395.75;5075436;28;20339;-88
2023/11/25 08:53:57;;;;;;;11.63;1.40;;;;;;;5.83;100.00;101390.66;5064641;28;20044;-88
2023/11/25 08:56:25;;;;;;;5.70;0.90;;;;;;;5.83;100.00;101382.88;5076195;28;20346;-88
2023/11/25 08:58:50;;;;;;;4.10;1.35;;;;;;;5.82;99.66;101383.75;5075283;28;20340;-88
2023/11/25 09:01:16;;;;;;;15.32;1.77;;;;;;;5.80;99.79;101374.25;5075653;28;20069;-88
2023/11/25 09:03:42;;;;;;;6.15;1.20;;;;;;;5.83;98.89;101380.25;5073668;28;20082;-88
2023/11/25 09:06:07;;;;;;;6.05;1.30;;;;;;;5.84;99.68;101376.81;5075804;28;20040;-88
2023/11/25 09:08:32;;;;;;;4.60;0.90;;;;;;;5.89;100.00;101387.13;5069235;28;20097;-87
2023/11/25 09:11:00;;;;;;;2.55;1.17;;;;;;;5.94;100.00;101380.13;5074439;28;20209;-87
2023/11/25 09:13:26;;;;;;;8.63;1.13;;;;;;;5.94;100.00;101382.72;5074840;28;20037;-87
2023/11/25 09:15:52;;;;;;;7.22;1.42;;;;;;;5.94;100.00;101393.97;5077866;28;20105;-84
2023/11/25 09:18:18;;;;;;;9.65;1.73;;;;;;;6.01;100.00;101393.94;5072382;28;20036;-87
2023/11/25 09:20:44;;;;;;;12.10;1.63;;;;;;;6.07;100.00;101394.72;5075965;28;20040;-88
2023/11/25 09:23:09;;;;;;;8.45;1.05;;;;;;;6.11;100.00;101400.72;5071323;28;20395;-87
2023/11/25 09:25:34;;;;;;;12.63;1.83;;;;;;;6.14;99.21;101382.50;5062718;28;20028;-88
2023/11/25 09:28:00;;;;;;;10.27;1.17;;;;;;;6.17;99.68;101390.28;5075561;28;20666;-88
2023/11/25 09:30:26;;;;;;;7.53;1.63;;;;;;;6.17;98.58;101392.88;5068198;28;20044;-86
2023/11/25 09:32:51;;;;;;;6.28;1.45;;;;;;;6.21;98.92;101397.16;5066983;28;20032;-86
2023/11/25 09:35:16;;;;;;;10.85;1.15;;;;;;;6.21;98.79;101391.94;5073924;28;20062;-86
2023/11/25 09:37:43;;;;;;;9.32;1.40;;;;;;;6.23;98.41;101391.94;5074363;28;20059;-86
2023/11/25 09:40:17;;;;;;;9.65;1.60;;;;;;;6.24;98.29;101391.03;5072682;28;20070;-86
2023/11/25 09:42:44;;;;;;;4.82;1.55;;;;;;;6.29;97.86;101390.09;5073157;28;20044;-86
2023/11/25 09:45:14;;;;;;;7.03;1.13;;;;;;;6.33;97.68;101386.56;5061206;28;20086;-86
2023/11/25 09:47:43;;;;;;;7.05;1.00;;;;;;;6.38;97.64;101398.66;5075345;28;20024;-86
2023/11/25 09:50:09;;;;;;;8.70;1.15;;;;;;;6.43;97.90;101387.28;5075670;28;20103;-87
2023/11/25 09:52:42;;;;;;;11.60;2.20;;;;;;;6.54;95.86;101389.72;5075282;28;20028;-86
2023/11/25 09:55:09;;;;;;;12.65;1.50;;;;;;;6.64;95.05;101390.44;5074315;28;20036;-86
2023/11/25 09:57:35;;;;;;;15.85;1.88;;;;;;;6.71;94.48;101400.75;5073311;28;20114;-85
2023/11/25 10:00:06;;;;;;;11.80;1.92;;;;;;;6.82;91.61;101413.59;5066463;28;20051;-85
2023/11/25 10:02:32;;;;;;;8.48;1.67;;;;;;;6.80;92.28;101409.28;5062174;28;20036;-86
2023/11/25 10:04:58;;;;;;;7.68;1.33;;;;;;;6.71;90.83;101405.97;5055507;28;20060;-86
2023/11/25 10:07:23;;;;;;;8.02;1.25;;;;;;;6.62;93.54;101408.72;5056866;28;20032;-84
2023/11/25 10:09:50;;;;;;;5.50;0.90;;;;;;;6.56;97.27;101407.94;5056199;28;20028;-84
2023/11/25 10:12:17;;;;;;;4.82;1.25;;;;;;;6.37;96.48;101413.41;5050885;28;20033;-83
2023/11/25 10:14:43;;;;;;;7.63;1.15;;;;;;;6.34;97.04;101409.09;5056709;28;20374;-83
2023/11/25 10:17:21;;;;;;;8.23;1.10;;;;;;;6.27;96.02;101399.66;5060826;28;20217;-84
2023/11/25 10:19:47;;;;;;;9.00;1.52;;;;;;;6.23;96.12;101399.72;5056955;28;20056;-84
2023/11/25 10:22:13;;;;;;;6.68;1.40;;;;;;;6.28;96.28;101403.13;5061474;28;20037;-83
2023/11/25 10:24:49;;;;;;;5.88;1.17;;;;;;;6.30;96.56;101402.22;5051915;28;20025;-83
2023/11/25 10:27:18;;;;;;;2.80;0.63;;;;;;;6.32;95.45;101397.84;5060337;28;20063;-84
2023/11/25 10:29:45;;;;;;;7.05;1.08;;;;;;;6.34;95.93;101396.06;5043283;28;20084;-83
2023/11/25 10:32:11;;;;;;;8.35;1.05;;;;;;;6.36;97.10;101403.00;5059569;28;20091;-84
2023/11/25 10:34:36;;;;;;;13.07;1.70;;;;;;;6.40;97.21;101394.28;5059415;28;20059;-84
2023/11/25 10:37:04;;;;;;;10.30;1.55;;;;;;;6.45;97.46;101388.13;5051325;28;20036;-84
2023/11/25 10:39:34;;;;;;;13.00;2.42;;;;;;;6.48;98.77;101389.84;5054506;28;20340;-84
2023/11/25 10:42:03;;;;;;;12.38;1.35;;;;;;;6.48;97.83;101385.47;5056055;28;20071;-84
2023/11/25 10:44:28;;;;;;;;;;;;;;;6.53;96.69;101370.66;5059896;28;20047;-83
2023/11/25 10:46:56;;;;;;;10.23;2.25;;;;;;;6.59;96.37;101376.66;5063280;28;19947;-84
2023/11/25 10:49:22;;;;;;;14.07;1.90;;;;;;;6.64;95.56;101375.72;5045646;28;20040;-86
2023/11/25 10:51:51;;;;;;;16.60;1.73;;;;;;;6.71;94.60;101364.31;5058000;28;20280;-88
2023/11/25 10:54:20;;;;;;;14.05;2.78;;;;;;;6.76;93.79;101364.22;5061005;28;20267;-84
2023/11/25 10:56:46;;;;;;;13.55;2.65;;;;;;;6.81;94.64;101374.56;5060856;28;20024;-84
2023/11/25 10:59:15;;;;;;;14.45;2.20;;;;;;;6.88;94.90;101376.19;5065815;28;20029;-84
2023/11/25 11:01:44;;;;;;;19.48;2.22;;;;;;;6.95;94.47;101379.53;5082240;28;20032;-85
2023/11/25 11:04:21;;;;;;;12.18;1.90;;;;;;;7.02;94.21;101374.22;5083211;28;20088;-85
2023/11/25 11:06:54;;;;;;;19.38;2.30;;;;;;;7.10;94.42;101380.13;5085875;28;20040;-84
2023/11/25 11:09:21;;;;;;;11.18;2.08;;;;;;;7.21;93.73;101369.53;5087721;28;20060;-84
2023/11/25 11:11:55;;;;;;;20.70;3.42;;;;;;;7.32;94.21;101363.28;5085854;28;20171;-85
2023/11/25 11:14:22;;;;;;;16.80;2.80;;;;;;;7.38;94.26;101368.34;5080789;28;20024;-84
2023/11/25 11:16:57;;;;;;;13.52;2.25;;;;;;;7.47;94.42;101360.34;5086645;28;20043;-85
2023/11/25 11:19:31;;;;;;;13.38;2.40;;;;;;;7.53;93.41;101375.91;5088549;28;20036;-84
2023/11/25 11:22:07;;;;;;;18.40;2.17;;;;;;;7.56;93.60;101374.97;5088190;28;20025;-84
2023/11/25 11:24:43;;;;;;;22.00;2.17;;;;;;;7.53;95.86;101375.00;5087879;28;20081;-84